createdAt,value
2019-05-20T00:01:31.758Z,13.71
2019-05-20T00:04:22.139Z,13.70
2019-05-20T00:07:04.730Z,13.70
2019-05-20T00:09:55.118Z,13.71
2019-05-20T00:12:38.468Z,13.63
2019-05-20T00:15:28.851Z,13.54
2019-05-20T00:18:12.039Z,13.49
2019-05-20T00:21:02.345Z,13.50
2019-05-20T00:23:45.830Z,13.46
2019-05-20T00:26:36.146Z,13.42
2019-05-20T00:29:19.479Z,13.39
2019-05-20T00:32:09.786Z,13.38
2019-05-20T00:35:13.322Z,13.36
2019-05-20T00:38:03.686Z,13.30
2019-05-20T00:40:46.915Z,13.23
2019-05-20T00:47:05.302Z,13.20
2019-05-20T00:49:55.661Z,13.25
2019-05-20T00:52:46.006Z,13.23
2019-05-20T00:55:29.729Z,13.24
2019-05-20T01:01:21.904Z,13.39
2019-05-20T01:04:12.265Z,13.48
2019-05-20T01:06:55.838Z,13.58
2019-05-20T01:09:46.221Z,13.63
2019-05-20T01:12:29.340Z,13.61
2019-05-20T01:15:19.928Z,13.61
2019-05-20T01:18:03.379Z,13.61
2019-05-20T01:23:56.110Z,13.62
2019-05-20T01:26:46.506Z,13.71
2019-05-20T01:29:29.650Z,13.73
2019-05-20T01:32:20.048Z,13.67
2019-05-20T01:35:03.352Z,13.58
2019-05-20T01:37:53.744Z,13.51
2019-05-20T01:40:36.540Z,13.40
2019-05-20T01:43:26.965Z,13.36
2019-05-20T01:46:10.430Z,13.32
2019-05-20T01:49:00.849Z,13.23
2019-05-20T01:51:43.473Z,13.21
2019-05-20T01:54:33.902Z,13.17
2019-05-20T01:57:17.190Z,13.14
2019-05-20T02:00:28.094Z,13.09
2019-05-20T02:03:31.075Z,13.06
2019-05-20T02:06:22.795Z,13.02
2019-05-20T02:09:13.187Z,12.99
2019-05-20T02:11:56.502Z,12.94
2019-05-20T02:18:07.728Z,12.91
2019-05-20T02:20:51.118Z,12.88
2019-05-20T02:23:41.532Z,12.85
2019-05-20T02:26:24.350Z,12.85
2019-05-20T02:29:14.750Z,12.84
2019-05-20T02:31:57.538Z,12.82
2019-05-20T02:34:48.166Z,12.84
2019-05-20T02:37:30.763Z,12.80
2019-05-20T02:40:21.187Z,12.78
2019-05-20T02:43:03.756Z,12.77
2019-05-20T02:45:54.150Z,12.80
2019-05-20T02:48:38.518Z,12.81
2019-05-20T02:51:47.797Z,12.84
2019-05-20T02:54:31.403Z,12.86
2019-05-20T02:57:21.822Z,12.91
2019-05-20T03:00:05.221Z,12.93
2019-05-20T03:02:55.617Z,12.94
2019-05-20T03:05:39.070Z,12.94
2019-05-20T03:08:29.487Z,13.01
2019-05-20T03:11:13.039Z,13.01
2019-05-20T03:14:03.559Z,13.01
2019-05-20T03:16:47.042Z,13.00
2019-05-20T03:19:37.491Z,13.02
2019-05-20T03:22:20.805Z,13.01
2019-05-20T03:25:11.283Z,13.01
2019-05-20T03:27:54.522Z,13.00
2019-05-20T03:30:45.307Z,13.02
2019-05-20T03:33:28.226Z,13.05
2019-05-20T03:36:18.737Z,13.04
2019-05-20T03:39:01.801Z,13.06
2019-05-20T03:41:52.185Z,13.02
2019-05-20T03:44:35.513Z,13.01
2019-05-20T03:47:25.881Z,13.00
2019-05-20T03:50:09.204Z,13.00
2019-05-20T03:53:13.483Z,13.00
2019-05-20T03:56:06.450Z,12.98
2019-05-20T03:58:56.905Z,12.96
2019-05-20T04:01:40.753Z,12.92
2019-05-20T04:04:31.181Z,12.96
2019-05-20T04:07:14.406Z,13.01
2019-05-20T04:10:05.151Z,12.99
2019-05-20T04:12:48.017Z,12.99
2019-05-20T04:15:38.413Z,13.02
2019-05-20T04:18:21.458Z,13.04
2019-05-20T04:21:04.269Z,13.05
2019-05-20T04:23:54.716Z,13.08
2019-05-20T04:26:37.551Z,13.11
2019-05-20T04:29:28.034Z,13.14
2019-05-20T04:32:11.630Z,13.16
2019-05-20T04:35:19.829Z,13.18
2019-05-20T04:38:06.328Z,13.18
2019-05-20T04:40:56.710Z,13.21
2019-05-20T04:43:39.518Z,13.23
2019-05-20T04:46:29.941Z,13.26
2019-05-20T04:49:14.721Z,13.26
2019-05-20T04:52:05.156Z,13.26
2019-05-20T04:54:50.229Z,13.32
2019-05-20T04:57:40.768Z,13.35
2019-05-20T05:04:13.337Z,13.38
2019-05-20T05:06:56.853Z,13.40
2019-05-20T05:09:47.215Z,13.43
2019-05-20T05:12:34.135Z,13.49
2019-05-20T05:31:51.808Z,13.73
2019-05-20T05:44:57.435Z,13.88
2019-05-20T05:47:40.112Z,13.88
2019-05-20T05:53:48.778Z,13.95
2019-05-20T05:56:58.432Z,14.00
2019-05-20T05:59:41.310Z,14.07
2019-05-20T06:02:24.919Z,14.16
2019-05-20T06:05:15.411Z,14.23
2019-05-20T06:07:58.110Z,14.30
2019-05-20T06:10:48.491Z,14.31
2019-05-20T06:13:31.181Z,14.34
2019-05-20T06:16:36.079Z,14.35
2019-05-20T06:19:26.179Z,14.36
2019-05-20T06:22:16.639Z,14.39
2019-05-20T06:24:59.807Z,14.41
2019-05-20T06:27:50.187Z,14.45
2019-05-20T06:30:37.830Z,14.49
2019-05-20T06:33:31.704Z,14.52
2019-05-20T06:36:26.398Z,14.61
2019-05-20T06:40:02.913Z,14.64
2019-05-20T06:42:52.661Z,14.71
2019-05-20T06:45:43.065Z,14.76
2019-05-20T06:48:26.311Z,14.78
2019-05-20T06:51:16.696Z,14.82
2019-05-20T06:53:59.307Z,14.84
2019-05-20T06:56:49.799Z,14.86
2019-05-20T06:59:32.686Z,14.91
2019-05-20T07:02:15.565Z,15.01
2019-05-20T07:08:34.776Z,15.06
2019-05-20T07:11:25.198Z,15.14
2019-05-20T07:14:08.571Z,15.20
2019-05-20T07:16:59.013Z,15.25
2019-05-20T07:19:45.096Z,15.21
2019-05-20T07:23:02.737Z,15.25
2019-05-20T07:26:00.035Z,15.24
2019-05-20T07:28:50.480Z,15.28
2019-05-20T07:31:34.539Z,15.44
2019-05-20T07:34:24.962Z,15.44
2019-05-20T07:37:08.392Z,15.46
2019-05-20T07:39:58.830Z,15.48
2019-05-20T07:42:41.513Z,15.49
2019-05-20T07:45:57.032Z,15.47
2019-05-20T07:48:40.521Z,15.49
2019-05-20T07:55:00.476Z,15.46
2019-05-20T07:58:14.764Z,15.44
2019-05-20T08:00:57.463Z,15.43
2019-05-20T08:03:47.938Z,15.42
2019-05-20T08:06:31.190Z,15.49
2019-05-20T08:09:21.633Z,15.54
2019-05-20T08:12:04.843Z,15.65
2019-05-20T08:14:55.249Z,15.74
2019-05-20T08:17:38.129Z,15.90
2019-05-20T08:20:28.536Z,16.04
2019-05-20T08:23:11.661Z,16.19
2019-05-20T08:26:02.059Z,16.35
2019-05-20T08:28:44.716Z,16.42
2019-05-20T08:31:35.101Z,16.40
2019-05-20T08:34:18.224Z,16.41
2019-05-20T08:37:08.624Z,16.42
2019-05-20T08:39:51.321Z,16.55
2019-05-20T08:42:41.727Z,16.61
2019-05-20T08:45:25.921Z,16.79
2019-05-20T08:47:57.247Z,16.91
2019-05-20T08:50:47.606Z,16.98
2019-05-20T08:53:30.713Z,17.03
2019-05-20T08:56:21.114Z,17.07
2019-05-20T08:59:03.729Z,17.18
2019-05-20T09:01:46.606Z,17.20
2019-05-20T09:04:36.997Z,17.15
2019-05-20T09:07:19.613Z,17.09
2019-05-20T09:10:10.192Z,16.99
2019-05-20T09:12:53.098Z,17.00
2019-05-20T09:15:45.423Z,16.96
2019-05-20T09:18:48.393Z,16.93
2019-05-20T09:21:38.790Z,16.86
2019-05-20T09:24:23.638Z,16.83
2019-05-20T09:27:13.995Z,16.76
2019-05-20T09:29:57.528Z,16.73
2019-05-20T09:32:48.038Z,16.73
2019-05-20T09:35:31.170Z,16.67
2019-05-20T09:38:21.657Z,16.69
2019-05-20T09:41:04.904Z,16.67
2019-05-20T09:43:55.327Z,16.67
2019-05-20T09:46:38.065Z,16.63
2019-05-20T09:49:28.491Z,16.71
2019-05-20T09:52:11.998Z,16.68
2019-05-20T09:55:02.501Z,16.63
2019-05-20T09:57:45.331Z,16.62
2019-05-20T10:00:35.825Z,16.67
2019-05-20T10:03:18.400Z,16.70
2019-05-20T10:06:09.045Z,16.74
2019-05-20T10:09:13.036Z,16.83
2019-05-20T10:12:03.444Z,16.81
2019-05-20T10:14:46.168Z,16.71
2019-05-20T10:17:36.568Z,16.72
2019-05-20T10:20:19.761Z,16.81
2019-05-20T10:23:10.147Z,16.97
2019-05-20T10:25:52.811Z,17.12
2019-05-20T10:28:47.175Z,17.18
2019-05-20T10:31:47.298Z,17.20
2019-05-20T10:34:37.918Z,17.26
2019-05-20T10:37:20.602Z,17.30
2019-05-20T10:43:40.282Z,17.52
2019-05-20T10:46:30.649Z,17.70
2019-05-20T10:49:13.150Z,17.72
2019-05-20T10:52:05.364Z,17.76
2019-05-20T10:55:08.803Z,17.68
2019-05-20T10:57:59.196Z,17.69
2019-05-20T11:01:01.795Z,17.61
2019-05-20T11:03:54.601Z,17.60
2019-05-20T11:06:44.991Z,17.60
2019-05-20T11:09:28.302Z,17.68
2019-05-20T11:12:18.671Z,17.70
2019-05-20T11:15:02.565Z,17.66
2019-05-20T11:17:53.167Z,17.72
2019-05-20T11:20:35.908Z,17.77
2019-05-20T11:23:26.263Z,17.82
2019-05-20T11:26:11.184Z,17.79
2019-05-20T11:29:01.598Z,17.86
2019-05-20T11:32:10.492Z,17.89
2019-05-20T11:34:59.002Z,17.89
2019-05-20T11:37:43.063Z,17.85
2019-05-20T11:40:53.408Z,17.92
2019-05-20T11:43:46.424Z,17.84
2019-05-20T11:46:39.139Z,17.84
2019-05-20T11:49:22.457Z,17.83
2019-05-20T11:52:12.805Z,17.79
2019-05-20T11:54:56.204Z,17.75
2019-05-20T11:57:46.650Z,17.73
2019-05-20T12:00:30.155Z,17.76
2019-05-20T12:03:20.543Z,17.77
2019-05-20T12:06:04.318Z,17.75
2019-05-20T12:08:55.008Z,17.61
2019-05-20T12:11:38.175Z,17.60
2019-05-20T12:14:28.612Z,17.55
2019-05-20T12:17:12.181Z,17.56
2019-05-20T12:20:03.826Z,17.58
2019-05-20T12:23:07.357Z,17.59
2019-05-20T12:25:57.768Z,17.63
2019-05-20T12:28:40.763Z,17.62
2019-05-20T12:31:31.192Z,17.68
2019-05-20T12:34:14.151Z,17.70
2019-05-20T12:37:04.656Z,17.68
2019-05-20T12:40:06.421Z,17.73
2019-05-20T12:43:00.657Z,17.75
2019-05-20T12:45:51.067Z,17.82
2019-05-20T12:48:34.337Z,17.87
2019-05-20T12:51:24.790Z,17.90
2019-05-20T12:54:07.667Z,17.90
2019-05-20T12:56:58.141Z,17.86
2019-05-20T12:59:41.572Z,17.91
2019-05-20T13:02:31.960Z,17.91
2019-05-20T13:05:15.618Z,17.96
2019-05-20T13:08:06.048Z,17.91
2019-05-20T13:10:49.353Z,17.89
2019-05-20T13:13:39.703Z,17.88
2019-05-20T13:16:22.916Z,17.89
2019-05-20T13:19:13.347Z,17.82
2019-05-20T13:22:03.868Z,17.79
2019-05-20T13:24:46.838Z,17.82
2019-05-20T13:27:37.196Z,17.73
2019-05-20T13:30:21.001Z,17.67
2019-05-20T13:33:11.367Z,17.65
2019-05-20T13:36:01.759Z,17.60
2019-05-20T13:38:44.704Z,17.61
2019-05-20T13:41:35.117Z,17.64
2019-05-20T13:44:17.673Z,17.62
2019-05-20T13:47:08.058Z,17.64
2019-05-20T13:49:50.838Z,17.71
2019-05-20T13:52:41.241Z,17.58
2019-05-20T13:55:24.031Z,17.59
2019-05-20T13:58:14.386Z,17.47
2019-05-20T14:00:57.184Z,17.48
2019-05-20T14:03:47.574Z,17.43
2019-05-20T14:06:30.947Z,17.37
2019-05-20T14:09:21.340Z,17.41
2019-05-20T14:12:24.630Z,17.47
2019-05-20T14:15:15.234Z,17.50
2019-05-20T14:17:58.535Z,17.63
2019-05-20T14:20:48.859Z,17.76
2019-05-20T14:23:31.905Z,17.92
2019-05-20T14:29:28.963Z,18.04
2019-05-20T14:32:19.340Z,17.98
2019-05-20T14:35:02.878Z,18.04
2019-05-20T14:37:53.272Z,18.01
2019-05-20T14:40:35.882Z,18.12
2019-05-20T14:43:26.362Z,18.06
2019-05-20T14:46:09.948Z,17.97
2019-05-20T14:49:02.530Z,18.00
2019-05-20T14:52:05.323Z,17.99
2019-05-20T14:54:55.878Z,18.00
2019-05-20T14:57:38.571Z,18.03
2019-05-20T15:00:28.948Z,18.05
2019-05-20T15:03:12.245Z,18.03
2019-05-20T15:06:02.665Z,18.00
2019-05-20T15:08:45.412Z,17.90
2019-05-20T15:11:38.569Z,17.91
2019-05-20T15:14:42.513Z,17.83
2019-05-20T15:17:32.429Z,17.82
2019-05-20T15:20:15.283Z,17.77
2019-05-20T15:23:05.644Z,17.76
2019-05-20T15:25:48.736Z,17.76
2019-05-20T15:28:39.158Z,17.72
2019-05-20T15:31:22.467Z,17.65
2019-05-20T15:33:53.845Z,17.57
2019-05-20T15:36:44.351Z,17.53
2019-05-20T15:39:34.761Z,17.54
2019-05-20T15:42:17.325Z,17.58
2019-05-20T15:48:37.410Z,17.57
2019-05-20T15:51:27.814Z,17.59
2019-05-20T15:54:18.235Z,17.60
2019-05-20T15:57:01.337Z,17.64
2019-05-20T15:59:51.727Z,17.65
2019-05-20T16:02:34.574Z,17.62
2019-05-20T16:05:25.024Z,17.55
2019-05-20T16:08:08.497Z,17.54
2019-05-20T16:10:58.910Z,17.62
2019-05-20T16:13:41.423Z,17.60
2019-05-20T16:16:31.829Z,17.52
2019-05-20T16:19:14.428Z,17.51
2019-05-20T16:22:04.840Z,17.40
2019-05-20T16:24:47.839Z,17.38
2019-05-20T16:27:38.225Z,17.27
2019-05-20T16:30:22.727Z,17.27
2019-05-20T16:33:05.606Z,17.23
2019-05-20T16:35:56.830Z,17.19
2019-05-20T16:38:39.992Z,17.12
2019-05-20T16:41:31.926Z,17.13
2019-05-20T16:44:14.604Z,17.08
2019-05-20T16:47:05.086Z,17.05
2019-05-20T16:49:48.298Z,17.06
2019-05-20T16:52:38.694Z,17.05
2019-05-20T16:55:22.035Z,17.08
2019-05-20T16:58:13.250Z,17.05
2019-05-20T17:00:56.192Z,17.03
2019-05-20T17:03:46.612Z,17.02
2019-05-20T17:06:29.932Z,17.01
2019-05-20T17:09:20.270Z,16.96
2019-05-20T17:12:03.144Z,16.90
2019-05-20T17:14:53.472Z,16.95
2019-05-20T17:17:36.744Z,16.95
2019-05-20T17:20:27.160Z,16.94
2019-05-20T17:23:10.247Z,17.00
2019-05-20T17:26:00.644Z,16.98
2019-05-20T17:28:44.071Z,17.02
2019-05-20T17:31:34.550Z,16.99
2019-05-20T17:34:19.651Z,16.98
2019-05-20T17:37:22.439Z,16.99
2019-05-20T17:40:15.205Z,17.04
2019-05-20T17:43:05.636Z,17.01
2019-05-20T17:45:48.878Z,16.99
2019-05-20T17:48:39.217Z,16.98
2019-05-20T17:51:22.547Z,16.92
2019-05-20T17:54:05.638Z,16.93
2019-05-20T17:56:56.031Z,16.95
2019-05-20T17:59:39.292Z,16.97
2019-05-20T18:02:29.707Z,16.97
2019-05-20T18:05:14.777Z,16.89
2019-05-20T18:08:04.867Z,16.89
2019-05-20T18:10:47.831Z,16.89
2019-05-20T18:13:38.341Z,16.85
2019-05-20T18:16:21.942Z,16.87
2019-05-20T18:19:12.419Z,16.83
2019-05-20T18:21:55.121Z,16.82
2019-05-20T18:24:45.579Z,16.81
2019-05-20T18:27:28.373Z,16.83
2019-05-20T18:33:54.663Z,16.79
2019-05-20T18:36:37.654Z,16.73
2019-05-20T18:39:20.284Z,16.70
2019-05-20T18:42:10.699Z,16.65
2019-05-20T18:44:53.869Z,16.61
2019-05-20T18:47:44.329Z,16.60
2019-05-20T18:50:27.939Z,16.57
2019-05-20T18:53:18.385Z,16.61
2019-05-20T18:56:01.750Z,16.69
2019-05-20T18:58:52.304Z,16.70
2019-05-20T19:01:55.752Z,16.70
2019-05-20T19:04:47.176Z,16.78
2019-05-20T19:07:37.599Z,16.79
2019-05-20T19:10:20.554Z,16.78
2019-05-20T19:13:10.931Z,16.80
2019-05-20T19:15:53.657Z,16.80
2019-05-20T19:18:44.098Z,16.83
2019-05-20T19:21:27.151Z,16.81
2019-05-20T19:24:17.704Z,16.80
2019-05-20T19:27:02.475Z,16.84
2019-05-20T19:29:52.868Z,16.84
2019-05-20T19:32:35.796Z,16.87
2019-05-20T19:35:26.191Z,16.86
2019-05-20T19:38:09.353Z,16.86
2019-05-20T19:40:59.725Z,16.88
2019-05-20T19:43:42.986Z,16.84
2019-05-20T19:46:33.359Z,16.91
2019-05-20T19:49:16.012Z,16.84
2019-05-20T19:52:06.377Z,16.82
2019-05-20T19:54:49.365Z,16.86
2019-05-20T19:57:39.830Z,16.87
2019-05-20T20:00:22.650Z,16.84
2019-05-20T20:03:13.134Z,16.78
2019-05-20T20:05:56.483Z,16.80
2019-05-20T20:08:46.958Z,16.79
2019-05-20T20:11:30.555Z,16.77
2019-05-20T20:14:20.981Z,16.77
2019-05-20T20:17:04.131Z,16.77
2019-05-20T20:19:58.103Z,16.73
2019-05-20T20:22:59.915Z,16.72
2019-05-20T20:25:50.520Z,16.75
2019-05-20T20:28:33.974Z,16.77
2019-05-20T20:31:24.378Z,16.55
2019-05-20T20:34:07.124Z,16.45
2019-05-20T20:36:50.185Z,16.32
2019-05-20T20:39:40.658Z,16.36
2019-05-20T20:42:23.849Z,16.24
2019-05-20T20:45:14.938Z,16.15
2019-05-20T20:47:58.017Z,16.15
2019-05-20T20:53:57.311Z,16.11
2019-05-20T20:56:47.732Z,16.05
2019-05-20T20:59:31.186Z,16.00
2019-05-20T21:02:21.581Z,15.98
2019-05-20T21:08:27.736Z,15.93
2019-05-20T21:11:10.699Z,15.94
2019-05-20T21:14:01.121Z,15.85
2019-05-20T21:16:43.928Z,15.84
2019-05-20T21:19:34.375Z,15.79
2019-05-20T21:22:16.976Z,15.77
2019-05-20T21:25:07.597Z,15.70
2019-05-20T21:27:50.134Z,15.71
2019-05-20T21:30:40.592Z,15.74
2019-05-20T21:33:23.755Z,15.64
2019-05-20T21:36:14.221Z,15.60
2019-05-20T21:38:57.128Z,15.59
2019-05-20T21:41:47.576Z,15.55
2019-05-20T21:44:30.690Z,15.51
2019-05-20T21:47:21.214Z,15.47
2019-05-20T21:50:04.483Z,15.41
2019-05-20T21:52:54.934Z,15.38
2019-05-20T21:55:38.776Z,15.32
2019-05-20T21:58:29.263Z,15.31
2019-05-20T22:01:12.861Z,15.31
2019-05-20T22:04:03.334Z,15.30
2019-05-20T22:06:53.164Z,15.28
2019-05-20T22:09:31.303Z,15.24
2019-05-20T22:12:21.719Z,15.15
2019-05-20T22:15:12.526Z,15.15
2019-05-20T22:18:02.975Z,15.12
2019-05-20T22:20:46.223Z,15.08
2019-05-20T22:26:43.235Z,15.11
2019-05-20T22:29:33.591Z,15.07
2019-05-20T22:32:16.612Z,15.04
2019-05-20T22:34:59.839Z,15.05
2019-05-20T22:37:50.353Z,15.02
2019-05-20T22:40:33.762Z,15.04
2019-05-20T22:43:25.159Z,15.04
2019-05-20T22:46:08.485Z,14.97
2019-05-20T22:48:58.970Z,14.96
2019-05-20T22:51:42.003Z,14.96
2019-05-20T22:54:32.443Z,14.95
2019-05-20T22:57:15.100Z,14.95
2019-05-20T23:00:05.541Z,14.93
2019-05-20T23:02:48.778Z,14.90
2019-05-20T23:05:39.128Z,14.89
2019-05-20T23:08:22.874Z,14.87
2019-05-20T23:11:13.203Z,14.87
2019-05-20T23:13:56.035Z,14.90
2019-05-20T23:16:46.394Z,14.96
2019-05-20T23:19:29.455Z,14.85
2019-05-20T23:22:19.896Z,14.78
2019-05-20T23:25:02.487Z,14.75
2019-05-20T23:27:52.920Z,14.70
2019-05-20T23:30:43.360Z,14.60
2019-05-20T23:33:26.653Z,14.58
2019-05-20T23:36:09.387Z,14.47
2019-05-20T23:39:19.706Z,14.42
2019-05-20T23:42:23.121Z,14.43
2019-05-20T23:45:13.851Z,14.38
2019-05-20T23:47:56.873Z,14.32
2019-05-20T23:50:47.309Z,14.28
2019-05-20T23:53:30.224Z,14.27
2019-05-20T23:56:20.662Z,14.21
2019-05-20T23:59:03.770Z,14.17
